RUDE1 MBPV-KFLL
Flight info
| Callsign | RUDE1 |
|---|---|
| Flight time | N/A |
| Altitude | 40000 |
| Route | ZQA OLAHS3 |
| Aircraft | CL60/M-SBDE1E2E3FGHIJ1J4J5J7M3RWXYZ/LB1V1D1 |
Departure
| Time | 2026-04-26 21:04 |
|---|---|
| Airport | Providenciales International Airport (MBPV) |
Arrival
| Time | N/A |
|---|---|
| Airport | Fort Lauderdale Hollywood International Airport (KFLL) |
| Time | Latitude | Longitude | Altitude | Speed | Heading |
|---|---|---|---|---|---|
| 2026-04-26 20:23 | 21.77519 | -72.25780 | 26 ft | 0 kts | 359° |
| 2026-04-26 20:57 | 21.77522 | -72.25779 | 26 ft | 2 kts | 23° |
| 2026-04-26 20:57 | 21.77522 | -72.25760 | 26 ft | 0 kts | 125° |
| 2026-04-26 20:58 | 21.77520 | -72.25757 | 26 ft | 4 kts | 128° |
| 2026-04-26 20:58 | 21.77476 | -72.25714 | 25 ft | 11 kts | 147° |
| 2026-04-26 20:58 | 21.77413 | -72.25713 | 25 ft | 7 kts | 199° |
| 2026-04-26 20:58 | 21.77397 | -72.25720 | 25 ft | 0 kts | 196° |
| 2026-04-26 20:59 | 21.77396 | -72.25720 | 25 ft | 0 kts | 196° |
| 2026-04-26 21:00 | 21.77362 | -72.25730 | 25 ft | 8 kts | 194° |
| 2026-04-26 21:00 | 21.77321 | -72.25710 | 25 ft | 6 kts | 107° |
| 2026-04-26 21:00 | 21.77315 | -72.25638 | 24 ft | 16 kts | 92° |
| 2026-04-26 21:00 | 21.77352 | -72.25555 | 24 ft | 12 kts | 79° |
| 2026-04-26 21:01 | 21.77321 | -72.25520 | 24 ft | 5 kts | 181° |
| 2026-04-26 21:01 | 21.77308 | -72.25540 | 24 ft | 2 kts | 280° |
| 2026-04-26 21:01 | 21.77310 | -72.25559 | 24 ft | 1 kts | 275° |
| 2026-04-26 21:01 | 21.77311 | -72.25564 | 24 ft | 0 kts | 273° |
| 2026-04-26 21:03 | 21.77311 | -72.25565 | 24 ft | 0 kts | 273° |
| 2026-04-26 21:03 | 21.77313 | -72.25601 | 24 ft | 38 kts | 273° |
| 2026-04-26 21:04 | 21.77350 | -72.26369 | 63 ft | 154 kts | 273° |
| 2026-04-26 21:04 | 21.77374 | -72.27578 | 1133 ft | 169 kts | 265° |
| 2026-04-26 21:04 | 21.77061 | -72.28762 | 2351 ft | 183 kts | 243° |
| 2026-04-26 21:04 | 21.76122 | -72.29709 | 3392 ft | 206 kts | 206° |
| 2026-04-26 21:05 | 21.74635 | -72.30006 | 3989 ft | 231 kts | 182° |
| 2026-04-26 21:05 | 21.72971 | -72.29943 | 4647 ft | 248 kts | 177° |
| 2026-04-26 21:05 | 21.71239 | -72.29726 | 5388 ft | 261 kts | 172° |
| 2026-04-26 21:05 | 21.69406 | -72.29295 | 5629 ft | 264 kts | 166° |
| 2026-04-26 21:06 | 21.67823 | -72.28783 | 6397 ft | 217 kts | 163° |
| 2026-04-26 21:06 | 21.66352 | -72.28193 | 7239 ft | 242 kts | 164° |
| 2026-04-26 21:06 | 21.64647 | -72.28016 | 8362 ft | 256 kts | 192° |
| 2026-04-26 21:06 | 21.63027 | -72.28803 | 9484 ft | 270 kts | 222° |
| 2026-04-26 21:07 | 21.61979 | -72.30453 | 10736 ft | 279 kts | 251° |
| 2026-04-26 21:07 | 21.61828 | -72.32516 | 11946 ft | 292 kts | 277° |
| 2026-04-26 21:07 | 21.62368 | -72.34722 | 12484 ft | 327 kts | 291° |
| 2026-04-26 21:07 | 21.63771 | -72.36783 | 13254 ft | 353 kts | 316° |
| 2026-04-26 21:08 | 21.65797 | -72.38403 | 14194 ft | 365 kts | 319° |
| 2026-04-26 21:08 | 21.67478 | -72.40391 | 15276 ft | 365 kts | 302° |
| 2026-04-26 21:08 | 21.68905 | -72.42670 | 16337 ft | 369 kts | 299° |
| 2026-04-26 21:08 | 21.70191 | -72.45016 | 17568 ft | 366 kts | 297° |
| 2026-04-26 21:09 | 21.71516 | -72.47349 | 18563 ft | 371 kts | 300° |
| 2026-04-26 21:09 | 21.72980 | -72.49691 | 19371 ft | 380 kts | 302° |
| 2026-04-26 21:09 | 21.74555 | -72.51977 | 20133 ft | 388 kts | 304° |
| 2026-04-26 21:09 | 21.76177 | -72.54303 | 20896 ft | 394 kts | 304° |
| 2026-04-26 21:10 | 21.77841 | -72.56693 | 21666 ft | 398 kts | 304° |
| 2026-04-26 21:10 | 21.79511 | -72.59090 | 22395 ft | 403 kts | 304° |
| 2026-04-26 21:10 | 21.81204 | -72.61521 | 23103 ft | 407 kts | 304° |
| 2026-04-26 21:10 | 21.82887 | -72.63939 | 23830 ft | 409 kts | 304° |
| 2026-04-26 21:11 | 21.84624 | -72.66434 | 24555 ft | 411 kts | 303° |
| 2026-04-26 21:11 | 21.86343 | -72.68905 | 25227 ft | 413 kts | 303° |
| 2026-04-26 21:11 | 21.88092 | -72.71421 | 25881 ft | 415 kts | 303° |
| 2026-04-26 21:11 | 21.89813 | -72.73897 | 26486 ft | 417 kts | 303° |
| 2026-04-26 21:12 | 21.91562 | -72.76414 | 27049 ft | 419 kts | 303° |
| 2026-04-26 21:12 | 21.93316 | -72.78941 | 27592 ft | 421 kts | 302° |
| 2026-04-26 21:12 | 21.95068 | -72.81465 | 28110 ft | 423 kts | 302° |
| 2026-04-26 21:12 | 21.96841 | -72.84021 | 28602 ft | 425 kts | 302° |
| 2026-04-26 21:13 | 21.98613 | -72.86575 | 29073 ft | 426 kts | 302° |
| 2026-04-26 21:13 | 22.00372 | -72.89111 | 29534 ft | 426 kts | 302° |
| 2026-04-26 21:13 | 22.02167 | -72.91703 | 29906 ft | 429 kts | 302° |
| 2026-04-26 21:13 | 22.03962 | -72.94295 | 30242 ft | 431 kts | 301° |
| 2026-04-26 21:14 | 22.05762 | -72.96897 | 30550 ft | 434 kts | 301° |
| 2026-04-26 21:14 | 22.07563 | -72.99500 | 30869 ft | 435 kts | 301° |
| 2026-04-26 21:14 | 22.09374 | -73.02119 | 31128 ft | 437 kts | 301° |
| 2026-04-26 21:14 | 22.11211 | -73.04778 | 31399 ft | 438 kts | 301° |
| 2026-04-26 21:15 | 22.13016 | -73.07390 | 31630 ft | 439 kts | 301° |
| 2026-04-26 21:15 | 22.14835 | -73.10024 | 31909 ft | 438 kts | 301° |
| 2026-04-26 21:15 | 22.16654 | -73.12654 | 32520 ft | 430 kts | 300° |
| 2026-04-26 21:15 | 22.18408 | -73.15190 | 33312 ft | 419 kts | 300° |
| 2026-04-26 21:16 | 22.20144 | -73.17701 | 34179 ft | 409 kts | 300° |
| 2026-04-26 21:16 | 22.21822 | -73.20132 | 34910 ft | 402 kts | 299° |
| 2026-04-26 21:16 | 22.23476 | -73.22532 | 35467 ft | 399 kts | 299° |
| 2026-04-26 21:16 | 22.25142 | -73.24953 | 35959 ft | 397 kts | 299° |
| 2026-04-26 21:17 | 22.26778 | -73.27332 | 36297 ft | 397 kts | 299° |
| 2026-04-26 21:17 | 22.28423 | -73.29727 | 36607 ft | 398 kts | 299° |
| 2026-04-26 21:17 | 22.30084 | -73.32144 | 36969 ft | 398 kts | 299° |
| 2026-04-26 21:17 | 22.31726 | -73.34535 | 37254 ft | 398 kts | 299° |
| 2026-04-26 21:18 | 22.33370 | -73.36930 | 37536 ft | 399 kts | 299° |
| 2026-04-26 21:18 | 22.35029 | -73.39346 | 37840 ft | 398 kts | 299° |
| 2026-04-26 21:18 | 22.36658 | -73.41721 | 38120 ft | 398 kts | 299° |
| 2026-04-26 21:18 | 22.38306 | -73.44123 | 38414 ft | 397 kts | 299° |
| 2026-04-26 21:19 | 22.39950 | -73.46521 | 38676 ft | 397 kts | 299° |
| 2026-04-26 21:19 | 22.41599 | -73.48927 | 38935 ft | 397 kts | 299° |
| 2026-04-26 21:19 | 22.43250 | -73.51337 | 39182 ft | 396 kts | 299° |
| 2026-04-26 21:19 | 22.44888 | -73.53730 | 39411 ft | 396 kts | 299° |
| 2026-04-26 21:20 | 22.46521 | -73.56114 | 39632 ft | 396 kts | 299° |
| 2026-04-26 21:20 | 22.48147 | -73.58491 | 39851 ft | 395 kts | 299° |
| 2026-04-26 21:20 | 22.49794 | -73.60902 | 39916 ft | 398 kts | 299° |
| 2026-04-26 21:21 | 22.53110 | -73.65758 | 39919 ft | 404 kts | 299° |
| 2026-04-26 21:21 | 22.56464 | -73.70676 | 39922 ft | 410 kts | 299° |
| 2026-04-26 21:22 | 22.59896 | -73.75710 | 39925 ft | 417 kts | 299° |
| 2026-04-26 21:22 | 22.63377 | -73.80820 | 39926 ft | 424 kts | 299° |
| 2026-04-26 21:23 | 22.68661 | -73.88583 | 39926 ft | 431 kts | 300° |
| 2026-04-26 21:23 | 22.72219 | -73.93816 | 39927 ft | 430 kts | 300° |
| 2026-04-26 21:24 | 22.75784 | -73.99061 | 39930 ft | 429 kts | 300° |
| 2026-04-26 21:24 | 22.79307 | -74.04253 | 39928 ft | 428 kts | 300° |
| 2026-04-26 21:25 | 22.82832 | -74.09452 | 39928 ft | 428 kts | 299° |
| 2026-04-26 21:25 | 22.86353 | -74.14651 | 39927 ft | 427 kts | 299° |
| 2026-04-26 21:26 | 22.89861 | -74.19836 | 39926 ft | 426 kts | 299° |
| 2026-04-26 21:26 | 22.93362 | -74.25018 | 39926 ft | 427 kts | 299° |
| 2026-04-26 21:27 | 22.96887 | -74.30241 | 39925 ft | 427 kts | 299° |
| 2026-04-26 21:27 | 23.00378 | -74.35416 | 39927 ft | 427 kts | 300° |
| 2026-04-26 21:28 | 23.03888 | -74.40627 | 39928 ft | 426 kts | 300° |
| 2026-04-26 21:28 | 23.07377 | -74.45810 | 39930 ft | 425 kts | 300° |
| 2026-04-26 21:29 | 23.10875 | -74.51014 | 39929 ft | 426 kts | 300° |
| 2026-04-26 21:29 | 23.14365 | -74.56210 | 39931 ft | 427 kts | 300° |
| 2026-04-26 21:30 | 23.17889 | -74.61462 | 39932 ft | 427 kts | 300° |
| 2026-04-26 21:30 | 23.21391 | -74.66686 | 39932 ft | 427 kts | 300° |
| 2026-04-26 21:31 | 23.24876 | -74.71892 | 39932 ft | 427 kts | 300° |
| 2026-04-26 21:31 | 23.28386 | -74.77138 | 39928 ft | 427 kts | 300° |
| 2026-04-26 21:32 | 23.31858 | -74.82333 | 39934 ft | 426 kts | 300° |
| 2026-04-26 21:32 | 23.35344 | -74.87554 | 39936 ft | 427 kts | 300° |
| 2026-04-26 21:33 | 23.38859 | -74.92826 | 39933 ft | 428 kts | 300° |
| 2026-04-26 21:33 | 23.42353 | -74.98070 | 39938 ft | 428 kts | 300° |
| 2026-04-26 21:34 | 23.45860 | -75.03339 | 39937 ft | 428 kts | 301° |
| 2026-04-26 21:34 | 23.49337 | -75.08569 | 39937 ft | 428 kts | 301° |
| 2026-04-26 21:35 | 23.52843 | -75.13848 | 39939 ft | 428 kts | 301° |
| 2026-04-26 21:35 | 23.56325 | -75.19097 | 39943 ft | 430 kts | 301° |
| 2026-04-26 21:36 | 23.59274 | -75.23546 | 39947 ft | 430 kts | 301° |
| 2026-04-26 21:36 | 23.63366 | -75.29726 | 39949 ft | 431 kts | 301° |
| 2026-04-26 21:37 | 23.66880 | -75.35039 | 39942 ft | 431 kts | 301° |
| 2026-04-26 21:37 | 23.70387 | -75.40346 | 39948 ft | 431 kts | 301° |
| 2026-04-26 21:38 | 23.73886 | -75.45648 | 39944 ft | 431 kts | 301° |
| 2026-04-26 21:38 | 23.77378 | -75.50945 | 39950 ft | 431 kts | 301° |
| 2026-04-26 21:39 | 23.80890 | -75.56278 | 39948 ft | 431 kts | 302° |
| 2026-04-26 21:39 | 23.84377 | -75.61578 | 39949 ft | 432 kts | 302° |
| 2026-04-26 21:40 | 23.87885 | -75.66916 | 39945 ft | 433 kts | 301° |
| 2026-04-26 21:40 | 23.91416 | -75.72295 | 39946 ft | 433 kts | 302° |
| 2026-04-26 21:41 | 23.94908 | -75.77619 | 39947 ft | 434 kts | 302° |
| 2026-04-26 21:41 | 23.98430 | -75.82996 | 39946 ft | 434 kts | 302° |
| 2026-04-26 21:42 | 24.01953 | -75.88379 | 39946 ft | 434 kts | 302° |
| 2026-04-26 21:42 | 24.05455 | -75.93736 | 39949 ft | 435 kts | 302° |
| 2026-04-26 21:43 | 24.08987 | -75.99146 | 39946 ft | 435 kts | 302° |
| 2026-04-26 21:43 | 24.12514 | -76.04552 | 39952 ft | 435 kts | 302° |
| 2026-04-26 21:44 | 24.16017 | -76.09930 | 39951 ft | 435 kts | 302° |
| 2026-04-26 21:44 | 24.19541 | -76.15344 | 39950 ft | 435 kts | 302° |
| 2026-04-26 21:45 | 24.23044 | -76.20732 | 39953 ft | 435 kts | 302° |
| 2026-04-26 21:45 | 24.26542 | -76.26119 | 39949 ft | 435 kts | 302° |
| 2026-04-26 21:46 | 24.30057 | -76.31537 | 39935 ft | 435 kts | 302° |
| 2026-04-26 21:46 | 24.33587 | -76.36985 | 39937 ft | 435 kts | 302° |
| 2026-04-26 21:47 | 24.37111 | -76.42430 | 39933 ft | 436 kts | 302° |
| 2026-04-26 21:47 | 24.40627 | -76.47869 | 39937 ft | 436 kts | 302° |
| 2026-04-26 21:48 | 24.44138 | -76.53307 | 39723 ft | 439 kts | 302° |
| 2026-04-26 21:48 | 24.45916 | -76.56061 | 39484 ft | 440 kts | 302° |
| 2026-04-26 21:48 | 24.47682 | -76.58799 | 39228 ft | 439 kts | 303° |
| 2026-04-26 21:49 | 24.49441 | -76.61528 | 38967 ft | 438 kts | 303° |
| 2026-04-26 21:49 | 24.51194 | -76.64249 | 38732 ft | 437 kts | 303° |
| 2026-04-26 21:49 | 24.52968 | -76.67004 | 38534 ft | 437 kts | 303° |
| 2026-04-26 21:49 | 24.54714 | -76.69717 | 38414 ft | 437 kts | 302° |
| 2026-04-26 21:50 | 24.56512 | -76.72514 | 38290 ft | 437 kts | 303° |
| 2026-04-26 21:50 | 24.57690 | -76.74347 | 38205 ft | 437 kts | 303° |
| 2026-04-26 21:50 | 24.60023 | -76.77979 | 38040 ft | 437 kts | 303° |
| 2026-04-26 21:50 | 24.61799 | -76.80744 | 37916 ft | 438 kts | 303° |
| 2026-04-26 21:51 | 24.63574 | -76.83511 | 37797 ft | 439 kts | 303° |
| 2026-04-26 21:51 | 24.65322 | -76.86237 | 37676 ft | 439 kts | 303° |
| 2026-04-26 21:51 | 24.67099 | -76.89009 | 37549 ft | 439 kts | 303° |
| 2026-04-26 21:51 | 24.68854 | -76.91750 | 37433 ft | 439 kts | 303° |
| 2026-04-26 21:52 | 24.70609 | -76.94489 | 37308 ft | 440 kts | 303° |
| 2026-04-26 21:52 | 24.72382 | -76.97262 | 37195 ft | 440 kts | 303° |
| 2026-04-26 21:52 | 24.74153 | -77.00030 | 37067 ft | 440 kts | 303° |
| 2026-04-26 21:52 | 24.75909 | -77.02778 | 36946 ft | 440 kts | 303° |
| 2026-04-26 21:53 | 24.77669 | -77.05534 | 36821 ft | 440 kts | 303° |
| 2026-04-26 21:53 | 24.79427 | -77.08289 | 36699 ft | 440 kts | 303° |
| 2026-04-26 21:53 | 24.81183 | -77.11041 | 36583 ft | 440 kts | 303° |
| 2026-04-26 21:53 | 24.82952 | -77.13814 | 36456 ft | 440 kts | 303° |
| 2026-04-26 21:54 | 24.84701 | -77.16560 | 36338 ft | 440 kts | 303° |
| 2026-04-26 21:54 | 24.86458 | -77.19318 | 36219 ft | 440 kts | 304° |
| 2026-04-26 21:54 | 24.88211 | -77.22072 | 36091 ft | 441 kts | 304° |
| 2026-04-26 21:54 | 24.89992 | -77.24871 | 35973 ft | 441 kts | 304° |
| 2026-04-26 21:55 | 24.91737 | -77.27615 | 35847 ft | 441 kts | 304° |
| 2026-04-26 21:55 | 24.93515 | -77.30412 | 35727 ft | 442 kts | 304° |
| 2026-04-26 21:55 | 24.95287 | -77.33204 | 35606 ft | 443 kts | 304° |
| 2026-04-26 21:55 | 24.97055 | -77.35989 | 35484 ft | 443 kts | 304° |
| 2026-04-26 21:56 | 24.98815 | -77.38763 | 35362 ft | 442 kts | 304° |
| 2026-04-26 21:56 | 25.00569 | -77.41530 | 35244 ft | 442 kts | 304° |
| 2026-04-26 21:56 | 25.02284 | -77.44396 | 35121 ft | 443 kts | 300° |
| 2026-04-26 21:56 | 25.03628 | -77.47484 | 34999 ft | 444 kts | 292° |
| 2026-04-26 21:57 | 25.04800 | -77.50626 | 34873 ft | 445 kts | 292° |
| 2026-04-26 21:57 | 25.05972 | -77.53758 | 34751 ft | 446 kts | 293° |
| 2026-04-26 21:57 | 25.07167 | -77.56953 | 34625 ft | 447 kts | 293° |
| 2026-04-26 21:57 | 25.08346 | -77.60105 | 34507 ft | 447 kts | 292° |
| 2026-04-26 21:58 | 25.09537 | -77.63294 | 34377 ft | 448 kts | 292° |
| 2026-04-26 21:58 | 25.10722 | -77.66468 | 34257 ft | 448 kts | 292° |
| 2026-04-26 21:58 | 25.11926 | -77.69694 | 34131 ft | 449 kts | 292° |
| 2026-04-26 21:58 | 25.13116 | -77.72885 | 34006 ft | 449 kts | 292° |
| 2026-04-26 21:59 | 25.15488 | -77.79253 | 33946 ft | 450 kts | 292° |
| 2026-04-26 21:59 | 25.17875 | -77.85673 | 33948 ft | 451 kts | 292° |
| 2026-04-26 22:00 | 25.20259 | -77.92092 | 33947 ft | 452 kts | 292° |
| 2026-04-26 22:00 | 25.22643 | -77.98521 | 33947 ft | 453 kts | 291° |
| 2026-04-26 22:01 | 25.25043 | -78.05001 | 33948 ft | 454 kts | 291° |
| 2026-04-26 22:01 | 25.27410 | -78.11401 | 33947 ft | 449 kts | 292° |
| 2026-04-26 22:02 | 25.28591 | -78.14598 | 33784 ft | 449 kts | 291° |
| 2026-04-26 22:02 | 25.29369 | -78.16706 | 33451 ft | 451 kts | 291° |
| 2026-04-26 22:02 | 25.31008 | -78.20955 | 32750 ft | 444 kts | 293° |
| 2026-04-26 22:02 | 25.32236 | -78.24011 | 32183 ft | 434 kts | 294° |
| 2026-04-26 22:03 | 25.33452 | -78.27045 | 31619 ft | 425 kts | 294° |
| 2026-04-26 22:03 | 25.34630 | -78.29988 | 31071 ft | 420 kts | 294° |
| 2026-04-26 22:03 | 25.35813 | -78.32944 | 30510 ft | 417 kts | 295° |
| 2026-04-26 22:03 | 25.36979 | -78.35859 | 29961 ft | 415 kts | 295° |
| 2026-04-26 22:04 | 25.38133 | -78.38747 | 29416 ft | 413 kts | 295° |
| 2026-04-26 22:04 | 25.39299 | -78.41666 | 28864 ft | 411 kts | 295° |
| 2026-04-26 22:04 | 25.40431 | -78.44505 | 28331 ft | 408 kts | 295° |
| 2026-04-26 22:04 | 25.41563 | -78.47385 | 27783 ft | 405 kts | 294° |
| 2026-04-26 22:05 | 25.42657 | -78.50230 | 27248 ft | 402 kts | 294° |
| 2026-04-26 22:05 | 25.43742 | -78.53055 | 26719 ft | 398 kts | 294° |
| 2026-04-26 22:05 | 25.44824 | -78.55874 | 26188 ft | 395 kts | 294° |
| 2026-04-26 22:05 | 25.45885 | -78.58639 | 25670 ft | 391 kts | 294° |
| 2026-04-26 22:06 | 25.46947 | -78.61408 | 25153 ft | 388 kts | 294° |
| 2026-04-26 22:06 | 25.47988 | -78.64123 | 24645 ft | 385 kts | 294° |
| 2026-04-26 22:06 | 25.49037 | -78.66861 | 24132 ft | 379 kts | 293° |
| 2026-04-26 22:06 | 25.50054 | -78.69520 | 23635 ft | 372 kts | 294° |
| 2026-04-26 22:07 | 25.51053 | -78.72133 | 23147 ft | 365 kts | 293° |
| 2026-04-26 22:07 | 25.52040 | -78.74713 | 22664 ft | 358 kts | 294° |
| 2026-04-26 22:07 | 25.53002 | -78.77231 | 22195 ft | 356 kts | 293° |
| 2026-04-26 22:07 | 25.53967 | -78.79759 | 21722 ft | 355 kts | 293° |
| 2026-04-26 22:08 | 25.54938 | -78.82304 | 21243 ft | 353 kts | 293° |
| 2026-04-26 22:08 | 25.55861 | -78.84724 | 20790 ft | 352 kts | 293° |
| 2026-04-26 22:08 | 25.55966 | -78.84998 | 20739 ft | 351 kts | 293° |